Emneth, United Kingdom
Current Conditions -  °F | °C
As of 2:50 AM on Saturday 29 Nov 2014 (Local Time) from EGYM Reporting Station
Haze Haze  
Wind Chill: 50°   Ceiling: 11000
Heat Index: 50°   Visibility: 4mi
Dew Point: 48°   Wind: 7mph
Humidity: 94%   Direction: 100°E
Pressure: 29.8"   Gusts: NA
Location:  52.64°N, 0.21°E
Report Text: EGYM 290250Z AUTO 10006KT 7000 HZ FEW009/// BKN110/// 10/09 Q1009
Loading
Personal Weather Stations






























Interactive Weather Map New forecast layout! Learn more

10-Day Weather Forecast

Advertisements
Track Severe Weather on mobile